createdAt,value
2022-08-10T00:03:35.241Z,48.68
2022-08-10T00:08:36.832Z,49.04
2022-08-10T00:13:38.415Z,49.24
2022-08-10T00:18:40.050Z,49.17
2022-08-10T00:23:41.789Z,48.82
2022-08-10T00:28:43.419Z,49.15
2022-08-10T00:33:45.014Z,48.78
2022-08-10T00:38:46.746Z,49.28
2022-08-10T00:43:48.388Z,49.27
2022-08-10T00:49:00.436Z,49.73
2022-08-10T00:54:02.401Z,50.14
2022-08-10T00:59:04.074Z,51.00
2022-08-10T01:04:40.219Z,51.33
2022-08-10T01:09:45.096Z,51.68
2022-08-10T01:15:13.488Z,51.87
2022-08-10T01:20:44.227Z,52.22
2022-08-10T01:26:31.440Z,52.79
2022-08-10T01:31:38.345Z,52.17
2022-08-10T01:37:03.663Z,52.57
2022-08-10T01:42:05.932Z,52.01
2022-08-10T01:47:32.096Z,51.76
2022-08-10T01:52:36.859Z,52.18
2022-08-10T01:57:38.986Z,52.50
2022-08-10T02:02:42.802Z,53.67
2022-08-10T02:07:45.941Z,52.99
2022-08-10T02:12:48.535Z,52.87
2022-08-10T02:18:00.140Z,52.95
2022-08-10T02:23:08.470Z,53.22
2022-08-10T02:28:12.367Z,53.61
2022-08-10T02:33:29.946Z,53.17
2022-08-10T02:38:58.437Z,53.69
2022-08-10T02:45:17.969Z,54.54
2022-08-10T02:49:29.517Z,54.09
2022-08-10T02:54:38.516Z,55.99
2022-08-10T02:59:46.090Z,55.60
2022-08-10T03:04:55.706Z,55.71
2022-08-10T03:10:00.597Z,54.96
2022-08-10T03:15:06.772Z,54.93
2022-08-10T03:20:37.728Z,55.83
2022-08-10T03:25:31.072Z,56.33
2022-08-10T03:30:34.372Z,57.52
2022-08-10T03:35:36.163Z,56.78
2022-08-10T03:40:46.082Z,56.98
2022-08-10T03:45:59.088Z,55.98
2022-08-10T03:51:01.509Z,56.60
2022-08-10T03:56:28.878Z,56.23
2022-08-10T04:02:41.910Z,56.09
2022-08-10T04:06:47.088Z,56.15
2022-08-10T04:11:52.949Z,57.20
2022-08-10T04:16:54.706Z,57.61
2022-08-10T04:22:09.062Z,57.11
2022-08-10T04:27:11.531Z,56.45
2022-08-10T04:32:14.788Z,56.68
2022-08-10T04:37:18.318Z,55.91
2022-08-10T04:42:20.179Z,55.77
2022-08-10T04:47:57.805Z,55.97
2022-08-10T04:52:43.617Z,56.55
2022-08-10T04:57:45.360Z,55.99
2022-08-10T05:02:46.965Z,55.29
2022-08-10T05:07:54.182Z,55.15
2022-08-10T05:12:58.637Z,55.35
2022-08-10T05:18:04.579Z,55.10
2022-08-10T05:23:11.209Z,53.72
2022-08-10T05:28:12.780Z,53.92
2022-08-10T05:33:14.624Z,53.35
2022-08-10T05:38:17.039Z,52.98
2022-08-10T05:43:20.351Z,52.16
2022-08-10T05:48:54.048Z,51.33
2022-08-10T05:54:02.862Z,51.60
2022-08-10T05:59:05.278Z,51.05
2022-08-10T06:04:09.827Z,51.52
2022-08-10T06:09:12.093Z,50.05
2022-08-10T06:14:34.943Z,49.90
2022-08-10T06:19:39.145Z,49.04
2022-08-10T06:25:02.710Z,49.62
2022-08-10T06:30:04.029Z,49.19
2022-08-10T06:35:23.299Z,48.27
2022-08-10T06:40:32.434Z,47.86
2022-08-10T06:45:38.997Z,48.52
2022-08-10T06:50:58.632Z,47.22
2022-08-10T06:56:07.857Z,47.23
2022-08-10T07:01:13.649Z,47.57
2022-08-10T07:06:17.406Z,47.02
2022-08-10T07:11:19.953Z,47.14
2022-08-10T07:16:22.206Z,45.68
2022-08-10T07:21:26.983Z,44.94
2022-08-10T07:26:30.504Z,44.19
2022-08-10T07:31:56.548Z,44.37
2022-08-10T07:36:56.417Z,45.01
2022-08-10T07:41:59.134Z,44.34
2022-08-10T07:47:04.118Z,44.00
2022-08-10T07:52:10.443Z,44.52
2022-08-10T07:57:20.970Z,44.72
2022-08-10T08:02:37.330Z,44.38
2022-08-10T08:07:40.378Z,43.50
2022-08-10T08:12:42.932Z,43.68
2022-08-10T08:17:48.222Z,42.82
2022-08-10T08:24:07.517Z,43.09
2022-08-10T08:28:21.998Z,43.11
2022-08-10T08:33:41.789Z,43.35
2022-08-10T08:38:44.598Z,43.02
2022-08-10T08:43:54.597Z,42.99
2022-08-10T08:49:11.962Z,42.59
2022-08-10T08:54:38.007Z,42.43
2022-08-10T09:00:13.503Z,41.96
2022-08-10T09:06:00.002Z,42.05
2022-08-10T09:11:16.979Z,42.28
2022-08-10T09:16:28.625Z,41.94
2022-08-10T09:21:33.235Z,41.99
2022-08-10T09:26:40.349Z,40.62
2022-08-10T09:32:59.433Z,40.59
2022-08-10T09:37:17.416Z,40.07
2022-08-10T09:42:34.319Z,39.17
2022-08-10T09:48:08.060Z,38.74
2022-08-10T09:53:39.038Z,38.50
2022-08-10T09:58:46.985Z,37.38
2022-08-10T10:04:03.191Z,36.34
2022-08-10T10:09:27.223Z,36.46
2022-08-10T10:15:24.259Z,36.13
2022-08-10T10:20:39.756Z,36.24
2022-08-10T10:26:10.603Z,36.15
2022-08-10T10:31:55.174Z,36.39
2022-08-10T10:36:58.421Z,36.17
2022-08-10T10:42:05.785Z,36.25
2022-08-10T10:47:33.479Z,36.36
2022-08-10T10:52:46.609Z,35.80
2022-08-10T10:58:06.076Z,35.70
2022-08-10T11:03:19.490Z,35.04
2022-08-10T11:08:29.216Z,34.67
2022-08-10T11:14:24.757Z,34.79
2022-08-10T11:19:18.634Z,34.43
2022-08-10T11:24:48.626Z,34.71
2022-08-10T11:29:51.954Z,34.30
2022-08-10T11:35:11.236Z,35.08
2022-08-10T11:40:49.566Z,35.23
2022-08-10T11:46:28.656Z,34.98
2022-08-10T11:51:44.875Z,34.42
2022-08-10T11:56:52.346Z,33.79
2022-08-10T12:01:55.210Z,33.64
2022-08-10T12:06:57.934Z,34.09
2022-08-10T12:12:00.283Z,33.36
2022-08-10T12:17:18.470Z,33.32
2022-08-10T12:22:25.745Z,33.56
2022-08-10T12:27:49.077Z,33.48
2022-08-10T12:33:06.943Z,33.57
2022-08-10T12:38:31.278Z,33.38
2022-08-10T12:44:06.655Z,32.87
2022-08-10T12:49:30.580Z,32.63
2022-08-10T12:54:36.289Z,32.81
2022-08-10T12:59:50.987Z,33.15
2022-08-10T13:04:54.786Z,33.17
2022-08-10T13:10:02.043Z,32.81
2022-08-10T13:15:49.446Z,32.82
2022-08-10T13:20:52.588Z,33.03
2022-08-10T13:25:57.301Z,33.52
2022-08-10T13:31:02.988Z,33.90
2022-08-10T13:36:05.146Z,33.84
2022-08-10T13:41:09.072Z,33.97
2022-08-10T13:46:22.816Z,33.41
2022-08-10T13:51:54.105Z,33.52
2022-08-10T13:56:50.529Z,33.44
2022-08-10T14:01:52.567Z,33.23
2022-08-10T14:06:56.876Z,33.33
2022-08-10T14:11:59.239Z,33.08
2022-08-10T14:17:00.943Z,32.16
2022-08-10T14:22:02.566Z,32.65
2022-08-10T14:27:07.183Z,31.88
2022-08-10T14:32:10.406Z,31.93
2022-08-10T14:37:17.021Z,31.74
2022-08-10T14:42:27.497Z,31.64
2022-08-10T14:47:52.136Z,32.00
2022-08-10T14:52:52.090Z,31.44
2022-08-10T14:58:16.559Z,31.95
2022-08-10T15:04:01.631Z,31.56
2022-08-10T15:08:37.869Z,31.99
2022-08-10T15:14:41.536Z,32.11
2022-08-10T15:20:01.096Z,32.22
2022-08-10T15:24:52.225Z,31.65
2022-08-10T15:29:57.212Z,32.48
2022-08-10T15:35:19.331Z,32.21
2022-08-10T15:40:30.674Z,33.08
2022-08-10T15:45:34.963Z,32.75
2022-08-10T15:50:41.015Z,32.49
2022-08-10T15:55:55.264Z,32.02
2022-08-10T16:01:03.303Z,31.79
2022-08-10T16:06:29.911Z,32.25
2022-08-10T16:11:38.323Z,31.81
2022-08-10T16:16:40.957Z,31.73
2022-08-10T16:21:42.882Z,31.77
2022-08-10T16:26:47.175Z,31.64
2022-08-10T16:31:57.052Z,32.10
2022-08-10T16:37:03.224Z,32.38
2022-08-10T16:42:10.354Z,32.22
2022-08-10T16:47:12.330Z,32.49
2022-08-10T16:52:14.153Z,32.81
2022-08-10T16:57:16.186Z,33.30
2022-08-10T17:02:18.752Z,33.42
2022-08-10T17:07:30.438Z,33.83
2022-08-10T17:12:33.756Z,33.96
2022-08-10T17:17:40.423Z,34.24
2022-08-10T17:22:42.497Z,34.50
2022-08-10T17:28:13.709Z,34.61
2022-08-10T17:33:12.683Z,35.12
2022-08-10T17:38:22.991Z,35.42
2022-08-10T17:43:58.279Z,35.62
2022-08-10T17:48:47.707Z,35.42
2022-08-10T17:53:52.915Z,35.51
2022-08-10T17:58:59.484Z,36.75
2022-08-10T18:04:03.529Z,35.99
2022-08-10T18:09:18.249Z,36.64
2022-08-10T18:14:21.240Z,35.17
2022-08-10T18:19:25.036Z,35.08
2022-08-10T18:24:27.256Z,36.00
2022-08-10T18:29:28.913Z,36.57
2022-08-10T18:34:32.939Z,36.56
2022-08-10T18:39:37.712Z,36.31
2022-08-10T18:44:50.250Z,37.09
2022-08-10T18:50:17.186Z,37.53
2022-08-10T18:55:25.288Z,37.76
2022-08-10T19:00:57.410Z,38.10
2022-08-10T19:06:29.998Z,38.93
2022-08-10T19:12:30.933Z,39.02
2022-08-10T19:18:04.408Z,39.13
2022-08-10T19:23:39.366Z,39.34
2022-08-10T19:29:05.135Z,39.61
2022-08-10T19:34:12.298Z,39.89
2022-08-10T19:39:42.051Z,40.13
2022-08-10T19:45:05.035Z,40.62
2022-08-10T19:50:11.513Z,41.00
2022-08-10T19:55:27.020Z,41.30
2022-08-10T20:00:45.159Z,41.36
2022-08-10T20:06:19.594Z,41.75
2022-08-10T20:11:44.558Z,42.03
2022-08-10T20:16:41.322Z,42.14
2022-08-10T20:21:49.769Z,42.44
2022-08-10T20:27:04.840Z,42.76
2022-08-10T20:32:24.100Z,42.88
2022-08-10T20:38:02.675Z,43.34
2022-08-10T20:43:15.703Z,43.47
2022-08-10T20:48:24.522Z,43.59
2022-08-10T20:53:28.976Z,43.49
2022-08-10T20:58:48.536Z,44.48
2022-08-10T21:04:13.390Z,44.34
2022-08-10T21:09:17.834Z,43.97
2022-08-10T21:15:01.224Z,43.90
2022-08-10T21:25:59.063Z,44.50
2022-08-10T21:31:09.550Z,44.72
2022-08-10T21:36:17.749Z,44.95
2022-08-10T21:41:56.616Z,44.80
2022-08-10T21:47:41.750Z,45.44
2022-08-10T21:53:19.213Z,46.34
2022-08-10T21:58:54.120Z,47.12
2022-08-10T22:04:15.653Z,47.96
2022-08-10T22:09:45.937Z,48.62
2022-08-10T22:15:06.924Z,47.16
2022-08-10T22:20:32.373Z,46.81
2022-08-10T22:26:17.477Z,47.11
2022-08-10T22:31:24.558Z,44.21
2022-08-10T22:31:51.741Z,47.55
2022-08-10T22:37:41.887Z,47.66
2022-08-10T22:43:10.861Z,47.75
2022-08-10T22:48:32.573Z,48.43
2022-08-10T22:54:00.482Z,48.25
2022-08-10T22:59:02.105Z,48.61
2022-08-10T23:04:11.567Z,49.51
2022-08-10T23:09:13.687Z,48.74
2022-08-10T23:14:16.182Z,48.61
2022-08-10T23:19:26.123Z,48.88
2022-08-10T23:24:31.329Z,49.74
2022-08-10T23:29:36.094Z,50.45
2022-08-10T23:36:30.919Z,49.87
2022-08-10T23:40:11.817Z,49.57
2022-08-10T23:45:20.599Z,49.74
2022-08-10T23:50:22.693Z,50.13
2022-08-10T23:55:30.393Z,50.06
